sensor_id;sensor_type;location;lat;lon;timestamp;P1;durP1;ratioP1;P2;durP2;ratioP2
51228;SDS011;37304;52.216;6.874;2022-07-12T00:01:03;2.95;;;1.98;;
51228;SDS011;37304;52.216;6.874;2022-07-12T00:06:04;3.72;;;1.90;;
51228;SDS011;37304;52.216;6.874;2022-07-12T00:11:04;2.78;;;2.17;;
51228;SDS011;37304;52.216;6.874;2022-07-12T00:16:05;2.78;;;2.15;;
51228;SDS011;37304;52.216;6.874;2022-07-12T00:21:06;2.33;;;1.92;;
51228;SDS011;37304;52.216;6.874;2022-07-12T00:26:07;2.50;;;2.00;;
51228;SDS011;37304;52.216;6.874;2022-07-12T00:31:07;3.03;;;2.53;;
51228;SDS011;37304;52.216;6.874;2022-07-12T00:36:08;2.75;;;2.45;;
51228;SDS011;37304;52.216;6.874;2022-07-12T00:41:08;3.00;;;2.65;;
51228;SDS011;37304;52.216;6.874;2022-07-12T00:46:09;4.35;;;2.80;;
51228;SDS011;37304;52.216;6.874;2022-07-12T00:51:10;3.08;;;2.72;;
51228;SDS011;37304;52.216;6.874;2022-07-12T00:56:10;3.30;;;2.90;;
51228;SDS011;37304;52.216;6.874;2022-07-12T01:01:12;3.05;;;2.75;;
51228;SDS011;37304;52.216;6.874;2022-07-12T01:06:13;3.67;;;2.75;;
51228;SDS011;37304;52.216;6.874;2022-07-12T01:11:13;4.25;;;3.00;;
51228;SDS011;37304;52.216;6.874;2022-07-12T01:16:15;4.75;;;3.20;;
51228;SDS011;37304;52.216;6.874;2022-07-12T01:21:18;3.50;;;3.20;;
51228;SDS011;37304;52.216;6.874;2022-07-12T01:26:22;4.30;;;3.80;;
51228;SDS011;37304;52.216;6.874;2022-07-12T01:31:22;4.40;;;4.00;;
51228;SDS011;37304;52.216;6.874;2022-07-12T01:36:23;4.72;;;4.30;;
51228;SDS011;37304;52.216;6.874;2022-07-12T01:41:23;5.03;;;3.65;;
51228;SDS011;37304;52.216;6.874;2022-07-12T01:46:24;4.93;;;3.95;;
51228;SDS011;37304;52.216;6.874;2022-07-12T01:51:24;3.95;;;3.50;;
51228;SDS011;37304;52.216;6.874;2022-07-12T01:56:24;5.22;;;4.03;;
51228;SDS011;37304;52.216;6.874;2022-07-12T02:01:25;4.97;;;3.80;;
51228;SDS011;37304;52.216;6.874;2022-07-12T02:06:26;5.28;;;4.63;;
51228;SDS011;37304;52.216;6.874;2022-07-12T02:11:26;8.68;;;4.57;;
51228;SDS011;37304;52.216;6.874;2022-07-12T02:16:26;5.63;;;3.83;;
51228;SDS011;37304;52.216;6.874;2022-07-12T02:21:27;4.35;;;3.63;;
51228;SDS011;37304;52.216;6.874;2022-07-12T02:26:28;8.07;;;4.10;;
51228;SDS011;37304;52.216;6.874;2022-07-12T02:31:29;6.03;;;4.32;;
51228;SDS011;37304;52.216;6.874;2022-07-12T02:36:29;11.23;;;4.47;;
51228;SDS011;37304;52.216;6.874;2022-07-12T02:41:30;8.70;;;4.53;;
51228;SDS011;37304;52.216;6.874;2022-07-12T02:46:31;7.68;;;3.60;;
51228;SDS011;37304;52.216;6.874;2022-07-12T02:51:31;4.60;;;3.80;;
51228;SDS011;37304;52.216;6.874;2022-07-12T02:56:32;8.75;;;5.45;;
51228;SDS011;37304;52.216;6.874;2022-07-12T03:01:32;5.95;;;4.75;;
51228;SDS011;37304;52.216;6.874;2022-07-12T03:06:32;8.35;;;4.75;;
51228;SDS011;37304;52.216;6.874;2022-07-12T03:11:33;4.43;;;4.03;;
51228;SDS011;37304;52.216;6.874;2022-07-12T03:16:33;5.73;;;4.40;;
51228;SDS011;37304;52.216;6.874;2022-07-12T03:21:33;5.93;;;4.20;;
51228;SDS011;37304;52.216;6.874;2022-07-12T03:26:34;5.18;;;4.03;;
51228;SDS011;37304;52.216;6.874;2022-07-12T03:31:34;6.55;;;4.40;;
51228;SDS011;37304;52.216;6.874;2022-07-12T03:36:34;6.10;;;4.30;;
51228;SDS011;37304;52.216;6.874;2022-07-12T03:41:35;4.97;;;4.30;;
51228;SDS011;37304;52.216;6.874;2022-07-12T03:46:35;10.07;;;4.80;;
51228;SDS011;37304;52.216;6.874;2022-07-12T03:51:35;6.70;;;4.30;;
51228;SDS011;37304;52.216;6.874;2022-07-12T03:56:36;5.80;;;4.40;;
51228;SDS011;37304;52.216;6.874;2022-07-12T04:01:55;7.15;;;4.53;;
51228;SDS011;37304;52.216;6.874;2022-07-12T04:06:55;11.90;;;5.55;;
51228;SDS011;37304;52.216;6.874;2022-07-12T04:11:56;7.13;;;5.03;;
51228;SDS011;37304;52.216;6.874;2022-07-12T04:16:56;7.05;;;5.72;;
51228;SDS011;37304;52.216;6.874;2022-07-12T04:21:57;7.82;;;6.85;;
51228;SDS011;37304;52.216;6.874;2022-07-12T04:26:58;7.80;;;6.97;;
51228;SDS011;37304;52.216;6.874;2022-07-12T04:31:59;6.93;;;6.22;;
51228;SDS011;37304;52.216;6.874;2022-07-12T04:36:59;8.93;;;6.90;;
51228;SDS011;37304;52.216;6.874;2022-07-12T04:41:59;8.10;;;7.20;;
51228;SDS011;37304;52.216;6.874;2022-07-12T04:47:00;8.57;;;7.43;;
51228;SDS011;37304;52.216;6.874;2022-07-12T04:52:00;8.32;;;7.35;;
51228;SDS011;37304;52.216;6.874;2022-07-12T04:57:00;10.60;;;7.75;;
51228;SDS011;37304;52.216;6.874;2022-07-12T05:02:01;7.38;;;6.68;;
51228;SDS011;37304;52.216;6.874;2022-07-12T05:07:02;6.95;;;6.25;;
51228;SDS011;37304;52.216;6.874;2022-07-12T05:12:02;7.28;;;5.97;;
51228;SDS011;37304;52.216;6.874;2022-07-12T05:17:03;7.18;;;6.47;;
51228;SDS011;37304;52.216;6.874;2022-07-12T05:22:04;7.00;;;6.30;;
51228;SDS011;37304;52.216;6.874;2022-07-12T05:27:04;5.93;;;5.40;;
51228;SDS011;37304;52.216;6.874;2022-07-12T05:32:04;7.18;;;6.47;;
51228;SDS011;37304;52.216;6.874;2022-07-12T05:37:05;6.43;;;5.75;;
51228;SDS011;37304;52.216;6.874;2022-07-12T05:42:05;6.30;;;5.70;;
51228;SDS011;37304;52.216;6.874;2022-07-12T05:47:06;6.82;;;6.20;;
51228;SDS011;37304;52.216;6.874;2022-07-12T05:52:07;7.47;;;5.33;;
51228;SDS011;37304;52.216;6.874;2022-07-12T05:57:26;6.40;;;5.75;;
51228;SDS011;37304;52.216;6.874;2022-07-12T06:02:26;7.47;;;5.57;;
51228;SDS011;37304;52.216;6.874;2022-07-12T06:07:27;5.95;;;5.05;;
51228;SDS011;37304;52.216;6.874;2022-07-12T06:12:27;6.35;;;4.82;;
51228;SDS011;37304;52.216;6.874;2022-07-12T06:17:29;6.47;;;5.43;;
51228;SDS011;37304;52.216;6.874;2022-07-12T06:22:29;5.78;;;5.18;;
51228;SDS011;37304;52.216;6.874;2022-07-12T06:27:29;5.05;;;4.55;;
51228;SDS011;37304;52.216;6.874;2022-07-12T06:32:30;4.05;;;3.65;;
51228;SDS011;37304;52.216;6.874;2022-07-12T06:37:30;4.97;;;4.23;;
51228;SDS011;37304;52.216;6.874;2022-07-12T06:42:30;6.27;;;3.67;;
51228;SDS011;37304;52.216;6.874;2022-07-12T06:47:31;4.20;;;3.80;;
51228;SDS011;37304;52.216;6.874;2022-07-12T06:52:31;4.37;;;3.40;;
51228;SDS011;37304;52.216;6.874;2022-07-12T06:57:31;4.60;;;3.80;;
51228;SDS011;37304;52.216;6.874;2022-07-12T07:02:33;6.57;;;4.45;;
51228;SDS011;37304;52.216;6.874;2022-07-12T07:07:33;3.42;;;3.13;;
51228;SDS011;37304;52.216;6.874;2022-07-12T07:12:34;3.60;;;3.30;;
51228;SDS011;37304;52.216;6.874;2022-07-12T07:17:34;3.53;;;3.08;;
51228;SDS011;37304;52.216;6.874;2022-07-12T07:22:34;3.70;;;3.33;;
51228;SDS011;37304;52.216;6.874;2022-07-12T07:27:35;3.85;;;3.45;;
51228;SDS011;37304;52.216;6.874;2022-07-12T07:32:35;3.80;;;3.40;;
51228;SDS011;37304;52.216;6.874;2022-07-12T07:37:35;3.67;;;3.30;;
51228;SDS011;37304;52.216;6.874;2022-07-12T07:42:36;4.60;;;3.80;;
51228;SDS011;37304;52.216;6.874;2022-07-12T07:47:46;4.30;;;3.80;;
51228;SDS011;37304;52.216;6.874;2022-07-12T07:52:48;4.57;;;3.97;;
51228;SDS011;37304;52.216;6.874;2022-07-12T07:57:51;3.75;;;3.22;;
51228;SDS011;37304;52.216;6.874;2022-07-12T08:02:51;3.83;;;3.43;;
51228;SDS011;37304;52.216;6.874;2022-07-12T08:07:51;6.57;;;4.30;;
51228;SDS011;37304;52.216;6.874;2022-07-12T08:12:52;3.10;;;2.30;;
51228;SDS011;37304;52.216;6.874;2022-07-12T08:17:52;2.85;;;2.08;;
51228;SDS011;37304;52.216;6.874;2022-07-12T08:22:53;2.53;;;2.10;;
51228;SDS011;37304;52.216;6.874;2022-07-12T08:27:53;3.25;;;1.65;;
51228;SDS011;37304;52.216;6.874;2022-07-12T08:32:53;3.78;;;1.88;;
51228;SDS011;37304;52.216;6.874;2022-07-12T08:37:57;11.98;;;2.08;;
51228;SDS011;37304;52.216;6.874;2022-07-12T08:42:57;2.65;;;2.10;;
51228;SDS011;37304;52.216;6.874;2022-07-12T08:48:00;1.92;;;1.60;;
51228;SDS011;37304;52.216;6.874;2022-07-12T08:53:00;3.03;;;1.60;;
51228;SDS011;37304;52.216;6.874;2022-07-12T08:58:02;1.67;;;1.50;;
51228;SDS011;37304;52.216;6.874;2022-07-12T09:03:05;3.33;;;2.50;;
51228;SDS011;37304;52.216;6.874;2022-07-12T09:08:07;2.50;;;2.30;;
51228;SDS011;37304;52.216;6.874;2022-07-12T09:13:09;1.40;;;1.30;;
51228;SDS011;37304;52.216;6.874;2022-07-12T09:18:09;1.40;;;1.30;;
51228;SDS011;37304;52.216;6.874;2022-07-12T09:23:17;1.25;;;1.15;;
51228;SDS011;37304;52.216;6.874;2022-07-12T09:28:18;1.85;;;1.52;;
51228;SDS011;37304;52.216;6.874;2022-07-12T09:33:18;3.73;;;1.70;;
51228;SDS011;37304;52.216;6.874;2022-07-12T09:38:39;1.90;;;1.50;;
51228;SDS011;37304;52.216;6.874;2022-07-12T09:43:49;1.90;;;1.50;;
51228;SDS011;37304;52.216;6.874;2022-07-12T09:48:50;1.15;;;1.10;;
51228;SDS011;37304;52.216;6.874;2022-07-12T09:53:51;1.77;;;1.20;;
51228;SDS011;37304;52.216;6.874;2022-07-12T09:58:54;1.10;;;1.10;;
51228;SDS011;37304;52.216;6.874;2022-07-12T10:03:56;1.25;;;0.80;;
51228;SDS011;37304;52.216;6.874;2022-07-12T10:09:00;1.75;;;0.70;;
51228;SDS011;37304;52.216;6.874;2022-07-12T10:14:01;1.85;;;0.95;;
51228;SDS011;37304;52.216;6.874;2022-07-12T10:19:21;1.10;;;0.70;;
51228;SDS011;37304;52.216;6.874;2022-07-12T10:29:30;2.28;;;0.70;;
51228;SDS011;37304;52.216;6.874;2022-07-12T10:34:30;1.63;;;1.00;;
51228;SDS011;37304;52.216;6.874;2022-07-12T10:39:32;1.73;;;0.80;;
51228;SDS011;37304;52.216;6.874;2022-07-12T10:44:36;1.90;;;0.60;;
51228;SDS011;37304;52.216;6.874;2022-07-12T10:49:43;1.88;;;0.65;;
51228;SDS011;37304;52.216;6.874;2022-07-12T10:54:50;0.80;;;0.80;;
51228;SDS011;37304;52.216;6.874;2022-07-12T11:00:16;0.80;;;0.80;;
51228;SDS011;37304;52.216;6.874;2022-07-12T11:05:23;0.98;;;0.70;;
51228;SDS011;37304;52.216;6.874;2022-07-12T11:10:26;0.60;;;0.60;;
51228;SDS011;37304;52.216;6.874;2022-07-12T11:15:26;3.78;;;0.60;;
51228;SDS011;37304;52.216;6.874;2022-07-12T11:20:27;0.50;;;0.50;;
51228;SDS011;37304;52.216;6.874;2022-07-12T11:25:28;1.53;;;0.70;;
51228;SDS011;37304;52.216;6.874;2022-07-12T11:30:28;0.73;;;0.60;;
51228;SDS011;37304;52.216;6.874;2022-07-12T11:35:29;1.43;;;0.53;;
51228;SDS011;37304;52.216;6.874;2022-07-12T11:40:30;0.60;;;0.60;;
51228;SDS011;37304;52.216;6.874;2022-07-12T11:45:31;2.00;;;0.50;;
51228;SDS011;37304;52.216;6.874;2022-07-12T11:50:33;3.08;;;0.60;;
51228;SDS011;37304;52.216;6.874;2022-07-12T11:55:40;0.50;;;0.43;;
51228;SDS011;37304;52.216;6.874;2022-07-12T12:00:43;1.38;;;0.50;;
51228;SDS011;37304;52.216;6.874;2022-07-12T12:05:46;1.30;;;0.60;;
51228;SDS011;37304;52.216;6.874;2022-07-12T12:10:55;1.42;;;0.80;;
51228;SDS011;37304;52.216;6.874;2022-07-12T12:15:58;1.85;;;0.70;;
51228;SDS011;37304;52.216;6.874;2022-07-12T12:21:03;0.80;;;0.50;;
51228;SDS011;37304;52.216;6.874;2022-07-12T12:26:11;0.88;;;0.70;;
51228;SDS011;37304;52.216;6.874;2022-07-12T12:31:16;0.93;;;0.60;;
51228;SDS011;37304;52.216;6.874;2022-07-12T12:41:23;3.28;;;0.80;;
51228;SDS011;37304;52.216;6.874;2022-07-12T12:51:56;1.40;;;0.50;;
51228;SDS011;37304;52.216;6.874;2022-07-12T12:57:00;0.77;;;0.77;;
51228;SDS011;37304;52.216;6.874;2022-07-12T13:02:01;1.20;;;0.82;;
51228;SDS011;37304;52.216;6.874;2022-07-12T13:07:03;9.38;;;1.45;;
51228;SDS011;37304;52.216;6.874;2022-07-12T13:12:05;1.73;;;0.80;;
51228;SDS011;37304;52.216;6.874;2022-07-12T13:17:06;1.77;;;0.80;;
51228;SDS011;37304;52.216;6.874;2022-07-12T13:22:07;2.72;;;0.73;;
51228;SDS011;37304;52.216;6.874;2022-07-12T13:27:07;0.85;;;0.77;;
51228;SDS011;37304;52.216;6.874;2022-07-12T13:32:08;4.70;;;0.97;;
51228;SDS011;37304;52.216;6.874;2022-07-12T13:37:08;1.52;;;1.02;;
51228;SDS011;37304;52.216;6.874;2022-07-12T13:42:09;1.52;;;0.80;;
51228;SDS011;37304;52.216;6.874;2022-07-12T13:47:09;0.55;;;0.55;;
51228;SDS011;37304;52.216;6.874;2022-07-12T13:52:10;1.33;;;1.10;;
51228;SDS011;37304;52.216;6.874;2022-07-12T13:57:10;3.60;;;0.70;;
51228;SDS011;37304;52.216;6.874;2022-07-12T14:02:10;0.77;;;0.60;;
51228;SDS011;37304;52.216;6.874;2022-07-12T14:07:12;1.27;;;0.75;;
51228;SDS011;37304;52.216;6.874;2022-07-12T14:12:13;2.67;;;1.00;;
51228;SDS011;37304;52.216;6.874;2022-07-12T14:17:14;2.03;;;0.90;;
51228;SDS011;37304;52.216;6.874;2022-07-12T14:22:14;3.20;;;1.00;;
51228;SDS011;37304;52.216;6.874;2022-07-12T14:27:15;1.45;;;0.90;;
51228;SDS011;37304;52.216;6.874;2022-07-12T14:32:16;2.03;;;0.80;;
51228;SDS011;37304;52.216;6.874;2022-07-12T14:37:16;0.65;;;0.60;;
51228;SDS011;37304;52.216;6.874;2022-07-12T14:42:17;1.20;;;0.70;;
51228;SDS011;37304;52.216;6.874;2022-07-12T14:47:17;1.23;;;0.70;;
51228;SDS011;37304;52.216;6.874;2022-07-12T14:52:18;0.70;;;0.60;;
51228;SDS011;37304;52.216;6.874;2022-07-12T14:57:19;1.80;;;0.70;;
51228;SDS011;37304;52.216;6.874;2022-07-12T15:02:20;1.17;;;0.98;;
51228;SDS011;37304;52.216;6.874;2022-07-12T15:07:20;1.05;;;0.73;;
51228;SDS011;37304;52.216;6.874;2022-07-12T15:12:21;1.45;;;0.98;;
51228;SDS011;37304;52.216;6.874;2022-07-12T15:17:21;1.25;;;0.95;;
51228;SDS011;37304;52.216;6.874;2022-07-12T15:22:22;6.07;;;1.20;;
51228;SDS011;37304;52.216;6.874;2022-07-12T15:27:22;1.63;;;1.20;;
51228;SDS011;37304;52.216;6.874;2022-07-12T15:32:23;1.10;;;1.00;;
51228;SDS011;37304;52.216;6.874;2022-07-12T15:37:25;2.53;;;1.30;;
51228;SDS011;37304;52.216;6.874;2022-07-12T15:42:25;1.40;;;1.07;;
51228;SDS011;37304;52.216;6.874;2022-07-12T15:52:28;5.65;;;2.58;;
51228;SDS011;37304;52.216;6.874;2022-07-12T15:57:46;2.00;;;1.48;;
51228;SDS011;37304;52.216;6.874;2022-07-12T16:02:47;1.43;;;1.20;;
51228;SDS011;37304;52.216;6.874;2022-07-12T16:07:49;3.97;;;2.20;;
51228;SDS011;37304;52.216;6.874;2022-07-12T16:17:51;1.73;;;1.13;;
51228;SDS011;37304;52.216;6.874;2022-07-12T16:22:52;9.00;;;1.93;;
51228;SDS011;37304;52.216;6.874;2022-07-12T16:27:52;3.40;;;1.30;;
51228;SDS011;37304;52.216;6.874;2022-07-12T16:32:56;1.65;;;1.13;;
51228;SDS011;37304;52.216;6.874;2022-07-12T16:37:56;1.75;;;1.10;;
51228;SDS011;37304;52.216;6.874;2022-07-12T16:42:56;3.93;;;1.70;;
51228;SDS011;37304;52.216;6.874;2022-07-12T16:47:58;2.35;;;1.00;;
51228;SDS011;37304;52.216;6.874;2022-07-12T16:52:58;1.10;;;1.00;;
51228;SDS011;37304;52.216;6.874;2022-07-12T16:57:59;4.38;;;1.67;;
51228;SDS011;37304;52.216;6.874;2022-07-12T17:02:59;7.07;;;2.00;;
51228;SDS011;37304;52.216;6.874;2022-07-12T17:08:01;6.47;;;3.38;;
51228;SDS011;37304;52.216;6.874;2022-07-12T17:13:01;15.43;;;2.20;;
51228;SDS011;37304;52.216;6.874;2022-07-12T17:18:02;3.47;;;1.45;;
51228;SDS011;37304;52.216;6.874;2022-07-12T17:23:02;2.30;;;1.57;;
51228;SDS011;37304;52.216;6.874;2022-07-12T17:28:02;2.50;;;1.17;;
51228;SDS011;37304;52.216;6.874;2022-07-12T17:33:03;2.75;;;1.45;;
51228;SDS011;37304;52.216;6.874;2022-07-12T17:38:03;4.45;;;1.83;;
51228;SDS011;37304;52.216;6.874;2022-07-12T17:43:04;4.97;;;2.17;;
51228;SDS011;37304;52.216;6.874;2022-07-12T17:48:05;3.28;;;2.08;;
51228;SDS011;37304;52.216;6.874;2022-07-12T17:53:05;3.13;;;1.20;;
51228;SDS011;37304;52.216;6.874;2022-07-12T17:58:06;1.75;;;1.20;;
51228;SDS011;37304;52.216;6.874;2022-07-12T18:03:28;2.50;;;1.42;;
51228;SDS011;37304;52.216;6.874;2022-07-12T18:08:32;1.77;;;1.50;;
51228;SDS011;37304;52.216;6.874;2022-07-12T18:13:33;1.95;;;1.30;;
51228;SDS011;37304;52.216;6.874;2022-07-12T18:18:52;4.07;;;1.60;;
51228;SDS011;37304;52.216;6.874;2022-07-12T18:23:53;5.53;;;2.00;;
51228;SDS011;37304;52.216;6.874;2022-07-12T18:28:54;4.15;;;1.70;;
51228;SDS011;37304;52.216;6.874;2022-07-12T18:33:54;1.63;;;1.20;;
51228;SDS011;37304;52.216;6.874;2022-07-12T18:38:55;3.53;;;1.70;;
51228;SDS011;37304;52.216;6.874;2022-07-12T18:43:56;6.43;;;3.15;;
51228;SDS011;37304;52.216;6.874;2022-07-12T18:48:57;4.40;;;1.80;;
51228;SDS011;37304;52.216;6.874;2022-07-12T18:53:58;3.05;;;1.40;;
51228;SDS011;37304;52.216;6.874;2022-07-12T18:58:58;4.93;;;2.00;;
51228;SDS011;37304;52.216;6.874;2022-07-12T19:03:59;3.20;;;1.60;;
51228;SDS011;37304;52.216;6.874;2022-07-12T19:08:59;3.42;;;1.70;;
51228;SDS011;37304;52.216;6.874;2022-07-12T19:13:59;4.27;;;2.47;;
51228;SDS011;37304;52.216;6.874;2022-07-12T19:19:00;1.83;;;1.67;;
51228;SDS011;37304;52.216;6.874;2022-07-12T19:24:04;3.72;;;1.80;;
51228;SDS011;37304;52.216;6.874;2022-07-12T19:29:05;2.70;;;2.08;;
51228;SDS011;37304;52.216;6.874;2022-07-12T19:34:05;3.63;;;2.27;;
51228;SDS011;37304;52.216;6.874;2022-07-12T19:39:06;5.03;;;2.33;;
51228;SDS011;37304;52.216;6.874;2022-07-12T19:44:06;6.38;;;2.17;;
51228;SDS011;37304;52.216;6.874;2022-07-12T19:49:06;5.75;;;2.60;;
51228;SDS011;37304;52.216;6.874;2022-07-12T19:54:07;3.47;;;2.70;;
51228;SDS011;37304;52.216;6.874;2022-07-12T19:59:07;9.48;;;3.60;;
51228;SDS011;37304;52.216;6.874;2022-07-12T20:04:08;5.60;;;2.78;;
51228;SDS011;37304;52.216;6.874;2022-07-12T20:09:08;4.68;;;2.40;;
51228;SDS011;37304;52.216;6.874;2022-07-12T20:14:08;4.65;;;2.60;;
51228;SDS011;37304;52.216;6.874;2022-07-12T20:19:09;5.80;;;2.93;;
51228;SDS011;37304;52.216;6.874;2022-07-12T20:24:09;5.05;;;2.92;;
51228;SDS011;37304;52.216;6.874;2022-07-12T20:29:10;5.28;;;2.50;;
51228;SDS011;37304;52.216;6.874;2022-07-12T20:34:11;4.50;;;2.70;;
51228;SDS011;37304;52.216;6.874;2022-07-12T20:39:27;3.88;;;3.22;;
51228;SDS011;37304;52.216;6.874;2022-07-12T20:44:28;5.90;;;3.13;;
51228;SDS011;37304;52.216;6.874;2022-07-12T20:49:28;7.80;;;3.70;;
51228;SDS011;37304;52.216;6.874;2022-07-12T20:54:30;5.70;;;3.53;;
51228;SDS011;37304;52.216;6.874;2022-07-12T20:59:31;3.97;;;3.58;;
51228;SDS011;37304;52.216;6.874;2022-07-12T21:04:31;6.20;;;3.45;;
51228;SDS011;37304;52.216;6.874;2022-07-12T21:09:31;3.17;;;2.87;;
51228;SDS011;37304;52.216;6.874;2022-07-12T21:14:32;4.38;;;3.53;;
51228;SDS011;37304;52.216;6.874;2022-07-12T21:19:32;3.15;;;2.75;;
51228;SDS011;37304;52.216;6.874;2022-07-12T21:24:32;6.32;;;3.50;;
51228;SDS011;37304;52.216;6.874;2022-07-12T21:29:33;3.50;;;2.93;;
51228;SDS011;37304;52.216;6.874;2022-07-12T21:34:36;4.72;;;3.47;;
51228;SDS011;37304;52.216;6.874;2022-07-12T21:39:36;6.83;;;3.10;;
51228;SDS011;37304;52.216;6.874;2022-07-12T21:44:36;4.68;;;3.13;;
51228;SDS011;37304;52.216;6.874;2022-07-12T21:49:37;8.63;;;3.40;;
51228;SDS011;37304;52.216;6.874;2022-07-12T21:54:37;3.50;;;3.17;;
51228;SDS011;37304;52.216;6.874;2022-07-12T21:59:38;6.10;;;3.78;;
51228;SDS011;37304;52.216;6.874;2022-07-12T22:04:38;5.20;;;3.42;;
51228;SDS011;37304;52.216;6.874;2022-07-12T22:09:38;4.53;;;3.63;;
51228;SDS011;37304;52.216;6.874;2022-07-12T22:14:39;3.67;;;2.97;;
51228;SDS011;37304;52.216;6.874;2022-07-12T22:19:39;5.15;;;3.13;;
51228;SDS011;37304;52.216;6.874;2022-07-12T22:24:39;6.07;;;3.45;;
51228;SDS011;37304;52.216;6.874;2022-07-12T22:29:40;6.57;;;3.53;;
51228;SDS011;37304;52.216;6.874;2022-07-12T22:34:40;3.92;;;3.33;;
51228;SDS011;37304;52.216;6.874;2022-07-12T22:39:40;4.22;;;3.53;;
51228;SDS011;37304;52.216;6.874;2022-07-12T22:44:41;5.55;;;3.55;;
51228;SDS011;37304;52.216;6.874;2022-07-12T22:49:41;6.93;;;3.90;;
51228;SDS011;37304;52.216;6.874;2022-07-12T22:54:41;4.88;;;3.33;;
51228;SDS011;37304;52.216;6.874;2022-07-12T22:59:42;4.50;;;3.42;;
51228;SDS011;37304;52.216;6.874;2022-07-12T23:04:42;3.45;;;3.15;;
51228;SDS011;37304;52.216;6.874;2022-07-12T23:09:42;3.80;;;3.50;;
51228;SDS011;37304;52.216;6.874;2022-07-12T23:14:43;5.60;;;3.33;;
51228;SDS011;37304;52.216;6.874;2022-07-12T23:19:43;3.58;;;3.10;;
51228;SDS011;37304;52.216;6.874;2022-07-12T23:24:43;4.45;;;3.33;;
51228;SDS011;37304;52.216;6.874;2022-07-12T23:29:44;5.23;;;2.83;;
51228;SDS011;37304;52.216;6.874;2022-07-12T23:34:44;5.38;;;3.20;;
51228;SDS011;37304;52.216;6.874;2022-07-12T23:39:44;3.92;;;3.05;;
51228;SDS011;37304;52.216;6.874;2022-07-12T23:44:45;7.03;;;3.63;;
51228;SDS011;37304;52.216;6.874;2022-07-12T23:49:45;5.00;;;3.75;;
51228;SDS011;37304;52.216;6.874;2022-07-12T23:54:46;4.20;;;3.80;;
51228;SDS011;37304;52.216;6.874;2022-07-12T23:59:46;5.20;;;4.43;;
